Terminal Aerodrome Forecast
Issued by NWS

Home | Current Version | Previous Version | Text Only | Print | Product List | Glossary On
Versions: 1 2 3 4 5 6 7 8 9 10 11 12
000
FTUS42 TJSJ 011700 RRA
TAFIST
TAF
TIST 011739Z 0118/0218 14012KT P6SM SCT030
     FM012200 11009KT P6SM FEW030
     FM020700 09007KT P6SM SCT022
     FM021430 12012KT P6SM FEW030=

USA.gov is the U.S. government's official web portal to all federal, state and local government web resources and services.